createdAt,value
2018-12-03T00:02:06.025Z,17.03
2018-12-03T00:04:34.007Z,18.53
2018-12-03T00:07:01.493Z,24.67
2018-12-03T00:09:29.033Z,22.43
2018-12-03T00:11:56.538Z,27.37
2018-12-03T00:14:23.980Z,21.77
2018-12-03T00:16:51.563Z,22.87
2018-12-03T00:19:18.981Z,19.63
2018-12-03T00:21:47.490Z,15.57
2018-12-03T00:24:15.120Z,19.10
2018-12-03T00:26:42.642Z,16.33
2018-12-03T00:29:10.124Z,14.67
2018-12-03T00:31:37.624Z,19.53
2018-12-03T00:34:05.304Z,22.93
2018-12-03T00:36:32.781Z,21.20
2018-12-03T00:39:00.323Z,17.07
2018-12-03T00:41:29.200Z,21.20
2018-12-03T00:43:56.871Z,15.90
2018-12-03T00:46:24.415Z,19.60
2018-12-03T00:48:52.015Z,22.43
2018-12-03T00:51:19.515Z,18.87
2018-12-03T00:53:47.019Z,17.33
2018-12-03T00:56:14.500Z,19.63
2018-12-03T00:58:42.031Z,14.00
2018-12-03T01:01:09.478Z,22.07
2018-12-03T01:03:36.970Z,18.00
2018-12-03T01:06:04.980Z,15.03
2018-12-03T01:08:32.443Z,22.53
2018-12-03T01:10:59.964Z,16.70
2018-12-03T01:13:27.435Z,15.20
2018-12-03T01:15:54.931Z,18.57
2018-12-03T01:18:22.470Z,17.70
2018-12-03T01:20:50.071Z,17.07
2018-12-03T01:23:17.506Z,15.97
2018-12-03T01:25:45.034Z,17.70
2018-12-03T01:28:12.563Z,13.50
2018-12-03T01:30:40.383Z,15.53
2018-12-03T01:33:07.951Z,18.03
2018-12-03T01:35:35.431Z,20.90
2018-12-03T01:38:02.961Z,15.93
2018-12-03T01:40:30.493Z,17.60
2018-12-03T01:42:57.986Z,19.17
2018-12-03T01:45:25.440Z,19.83
2018-12-03T01:47:53.011Z,16.90
2018-12-03T01:50:21.146Z,13.73
2018-12-03T01:52:48.552Z,18.13
2018-12-03T01:55:16.046Z,17.63
2018-12-03T01:57:44.169Z,17.80
2018-12-03T02:00:12.504Z,15.83
2018-12-03T02:02:39.987Z,17.20
2018-12-03T02:05:08.022Z,16.17
2018-12-03T02:07:36.325Z,22.33
2018-12-03T02:10:04.303Z,18.57
2018-12-03T02:12:31.760Z,18.63
2018-12-03T02:14:59.223Z,20.60
2018-12-03T02:17:26.707Z,19.33
2018-12-03T02:19:54.198Z,20.87
2018-12-03T02:22:21.783Z,17.87
2018-12-03T02:24:49.218Z,17.63
2018-12-03T02:27:16.909Z,20.40
2018-12-03T02:29:44.351Z,17.30
2018-12-03T02:32:11.836Z,23.00
2018-12-03T02:34:39.331Z,18.87
2018-12-03T02:37:07.305Z,21.00
2018-12-03T02:39:34.861Z,20.60
2018-12-03T02:42:02.371Z,18.93
2018-12-03T02:44:30.679Z,22.23
2018-12-03T02:46:58.192Z,21.47
2018-12-03T02:49:25.560Z,18.33
2018-12-03T02:51:53.123Z,23.00
2018-12-03T02:54:20.652Z,17.90
2018-12-03T02:56:48.156Z,17.30
2018-12-03T02:59:15.675Z,19.00
2018-12-03T03:01:43.101Z,20.47
2018-12-03T03:04:10.579Z,20.93
2018-12-03T03:06:38.341Z,18.77
2018-12-03T03:09:07.618Z,21.40
2018-12-03T03:11:35.130Z,21.60
2018-12-03T03:14:02.535Z,21.07
2018-12-03T03:16:29.973Z,19.77
2018-12-03T03:18:57.474Z,22.10
2018-12-03T03:21:24.961Z,21.97
2018-12-03T03:23:52.482Z,21.60
2018-12-03T03:26:19.929Z,25.10
2018-12-03T03:28:47.448Z,17.83
2018-12-03T03:31:14.979Z,17.97
2018-12-03T03:33:42.396Z,16.20
2018-12-03T03:36:09.854Z,20.37
2018-12-03T03:38:37.328Z,16.33
2018-12-03T03:41:04.800Z,19.37
2018-12-03T03:43:32.250Z,13.40
2018-12-03T03:45:59.699Z,15.50
2018-12-03T03:48:27.136Z,23.40
2018-12-03T03:50:54.596Z,23.17
2018-12-03T03:53:22.056Z,22.30
2018-12-03T03:55:49.506Z,27.20
2018-12-03T03:58:16.943Z,28.00
2018-12-03T04:00:44.394Z,24.67
2018-12-03T04:03:11.865Z,27.07
2018-12-03T04:05:39.332Z,28.80
2018-12-03T04:08:07.013Z,27.70
2018-12-03T04:10:35.337Z,25.77
2018-12-03T04:13:02.799Z,20.97
2018-12-03T04:15:30.295Z,22.63
2018-12-03T04:17:57.850Z,18.90
2018-12-03T04:20:25.312Z,27.37
2018-12-03T04:22:53.593Z,28.80
2018-12-03T04:25:20.985Z,22.17
2018-12-03T04:27:48.672Z,25.13
2018-12-03T04:30:17.699Z,30.63
2018-12-03T04:32:45.158Z,27.20
2018-12-03T04:35:12.762Z,29.23
2018-12-03T04:37:40.369Z,25.23
2018-12-03T04:40:11.229Z,27.40
2018-12-03T04:42:38.709Z,29.63
2018-12-03T04:45:07.625Z,24.43
2018-12-03T04:47:35.129Z,25.93
2018-12-03T04:50:02.582Z,26.53
2018-12-03T04:52:30.012Z,26.17
2018-12-03T04:54:57.447Z,27.17
2018-12-03T04:57:24.878Z,26.43
2018-12-03T04:59:52.330Z,37.27
2018-12-03T05:02:19.815Z,27.47
2018-12-03T05:04:48.044Z,26.63
2018-12-03T05:07:16.262Z,22.27
2018-12-03T05:09:43.821Z,25.40
2018-12-03T05:12:11.275Z,26.03
2018-12-03T05:14:38.834Z,23.23
2018-12-03T05:17:06.364Z,30.63
2018-12-03T05:19:33.812Z,27.27
2018-12-03T05:22:01.264Z,27.93
2018-12-03T05:24:28.770Z,30.17
2018-12-03T05:26:56.178Z,26.83
2018-12-03T05:29:23.655Z,30.50
2018-12-03T05:31:51.811Z,23.70
2018-12-03T05:34:19.387Z,28.33
2018-12-03T05:36:46.836Z,29.27
2018-12-03T05:39:14.319Z,27.70
2018-12-03T05:41:41.785Z,32.43
2018-12-03T05:44:09.232Z,31.20
2018-12-03T05:46:36.652Z,33.17
2018-12-03T05:49:04.229Z,27.63
2018-12-03T05:51:31.767Z,25.03
2018-12-03T05:53:59.243Z,24.73
2018-12-03T05:56:26.783Z,29.50
2018-12-03T05:58:54.261Z,21.53
2018-12-03T06:01:21.766Z,27.97
2018-12-03T06:03:49.315Z,26.30
2018-12-03T06:06:16.842Z,23.73
2018-12-03T06:08:44.434Z,27.43
2018-12-03T06:11:11.964Z,20.70
2018-12-03T06:13:39.472Z,21.97
2018-12-03T06:16:07.039Z,22.90
2018-12-03T06:18:35.529Z,22.70
2018-12-03T06:21:03.009Z,26.17
2018-12-03T06:23:30.471Z,24.77
2018-12-03T06:25:57.944Z,27.97
2018-12-03T06:28:25.507Z,25.67
2018-12-03T06:30:52.944Z,23.97
2018-12-03T06:33:20.531Z,24.17
2018-12-03T06:35:48.000Z,28.27
2018-12-03T06:38:15.596Z,24.63
2018-12-03T06:40:42.973Z,27.30
2018-12-03T06:43:10.428Z,24.17
2018-12-03T06:45:38.101Z,25.63
2018-12-03T06:48:11.754Z,27.37
2018-12-03T06:50:39.485Z,21.97
2018-12-03T06:53:06.910Z,24.50
2018-12-03T06:55:34.333Z,29.47
2018-12-03T06:58:01.829Z,28.27
2018-12-03T07:00:29.412Z,29.23
2018-12-03T07:02:56.923Z,23.60
2018-12-03T07:05:24.672Z,28.90
2018-12-03T07:07:54.100Z,35.97
2018-12-03T07:10:22.147Z,24.47
2018-12-03T07:12:51.448Z,29.50
2018-12-03T07:15:19.528Z,32.40
2018-12-03T07:17:47.300Z,30.30
2018-12-03T07:20:14.767Z,31.60
2018-12-03T07:22:42.352Z,27.03
2018-12-03T07:25:10.165Z,31.03
2018-12-03T07:27:37.647Z,25.70
2018-12-03T07:30:09.135Z,30.57
2018-12-03T07:32:36.535Z,33.23
2018-12-03T07:35:04.528Z,35.33
2018-12-03T07:37:32.055Z,33.10
2018-12-03T07:39:59.498Z,32.37
2018-12-03T07:42:27.067Z,24.83
2018-12-03T07:44:54.492Z,31.73
2018-12-03T07:47:21.901Z,31.27
2018-12-03T07:49:49.313Z,34.50
2018-12-03T07:52:16.928Z,33.03
2018-12-03T07:54:44.432Z,27.63
2018-12-03T07:57:11.904Z,24.97
2018-12-03T07:59:39.371Z,34.27
2018-12-03T08:02:06.960Z,23.57
2018-12-03T08:04:34.411Z,28.60
2018-12-03T08:07:01.933Z,32.57
2018-12-03T08:09:29.436Z,30.23
2018-12-03T08:11:56.913Z,34.60
2018-12-03T08:14:24.355Z,30.03
2018-12-03T08:16:52.638Z,35.93
2018-12-03T08:19:20.083Z,27.30
2018-12-03T08:21:47.972Z,36.73
2018-12-03T08:24:15.200Z,31.93
2018-12-03T08:26:42.668Z,36.10
2018-12-03T08:29:10.121Z,34.20
2018-12-03T08:31:37.590Z,41.50
2018-12-03T08:34:05.137Z,29.30
2018-12-03T08:36:32.718Z,30.00
2018-12-03T08:39:00.306Z,37.13
2018-12-03T08:41:27.790Z,30.03
2018-12-03T08:43:55.259Z,33.67
2018-12-03T08:46:22.767Z,28.70
2018-12-03T08:48:50.305Z,29.83
2018-12-03T08:51:17.844Z,23.97
2018-12-03T08:53:46.014Z,31.07
2018-12-03T08:56:13.503Z,29.67
2018-12-03T08:58:41.049Z,26.97
2018-12-03T09:01:11.676Z,25.70
2018-12-03T09:03:39.489Z,23.30
2018-12-03T09:06:08.618Z,24.63
2018-12-03T09:08:36.219Z,19.33
2018-12-03T09:11:03.743Z,21.93
2018-12-03T09:13:31.200Z,19.87
2018-12-03T09:16:00.317Z,27.23
2018-12-03T09:18:30.928Z,21.77
2018-12-03T09:20:58.674Z,22.57
2018-12-03T09:23:26.131Z,22.80
2018-12-03T09:25:53.597Z,25.93
2018-12-03T09:28:21.139Z,21.70
2018-12-03T09:30:48.618Z,20.90
2018-12-03T09:33:16.045Z,22.87
2018-12-03T09:35:43.507Z,20.43
2018-12-03T09:38:11.067Z,21.40
2018-12-03T09:40:38.679Z,24.07
2018-12-03T09:43:06.180Z,24.93
2018-12-03T09:45:33.676Z,22.03
2018-12-03T09:48:01.095Z,24.97
2018-12-03T09:50:29.036Z,25.07
2018-12-03T09:53:28.761Z,26.00
2018-12-03T09:55:56.267Z,35.87
2018-12-03T09:58:23.948Z,32.20
2018-12-03T10:00:51.490Z,33.43
2018-12-03T10:03:22.018Z,38.17
2018-12-03T10:05:53.533Z,29.27
2018-12-03T10:08:23.846Z,30.17
2018-12-03T10:10:53.594Z,31.07
2018-12-03T10:13:21.071Z,34.70
2018-12-03T10:15:48.520Z,35.30
2018-12-03T10:18:15.977Z,35.60
2018-12-03T10:20:46.731Z,30.83
2018-12-03T10:23:14.156Z,30.83
2018-12-03T10:25:42.330Z,34.87
2018-12-03T10:28:09.738Z,35.30
2018-12-03T10:30:37.240Z,30.47
2018-12-03T10:33:04.985Z,34.70
2018-12-03T10:35:33.339Z,34.43
2018-12-03T10:38:05.072Z,27.20
2018-12-03T10:40:32.707Z,28.53
2018-12-03T10:43:00.268Z,34.10
2018-12-03T10:45:27.666Z,26.83
2018-12-03T10:47:56.299Z,27.83
2018-12-03T10:50:23.759Z,33.97
2018-12-03T10:52:51.338Z,31.40
2018-12-03T10:55:18.839Z,30.87
2018-12-03T10:57:46.360Z,30.10
2018-12-03T11:00:20.101Z,27.03
2018-12-03T11:02:52.908Z,27.10
2018-12-03T11:05:26.996Z,25.87
2018-12-03T11:07:54.403Z,28.40
2018-12-03T11:10:21.947Z,29.13
2018-12-03T11:12:50.092Z,29.70
2018-12-03T11:15:18.334Z,27.90
2018-12-03T11:17:45.753Z,30.03
2018-12-03T11:20:13.258Z,22.33
2018-12-03T11:22:40.703Z,20.97
2018-12-03T11:25:10.310Z,24.97
2018-12-03T11:27:38.325Z,22.53
2018-12-03T11:30:07.343Z,28.73
2018-12-03T11:32:34.778Z,28.60
2018-12-03T11:35:05.824Z,23.97
2018-12-03T11:37:31.600Z,32.10
2018-12-03T11:40:03.690Z,24.30
2018-12-03T11:42:32.618Z,29.03
2018-12-03T11:45:00.055Z,33.13
2018-12-03T11:47:27.474Z,27.17
2018-12-03T11:49:54.910Z,28.17
2018-12-03T11:52:22.352Z,36.60
2018-12-03T11:54:49.764Z,24.80
2018-12-03T11:57:17.187Z,24.47
2018-12-03T11:59:44.609Z,25.83
2018-12-03T12:02:12.042Z,23.23
2018-12-03T12:04:39.472Z,29.43
2018-12-03T12:07:06.997Z,23.03
2018-12-03T12:09:34.455Z,28.97
2018-12-03T12:12:01.866Z,25.87
2018-12-03T12:14:29.344Z,24.43
2018-12-03T12:16:56.872Z,30.70
2018-12-03T12:19:24.553Z,22.03
2018-12-03T12:21:52.042Z,26.37
2018-12-03T12:24:19.416Z,27.37
2018-12-03T12:26:46.995Z,27.03
2018-12-03T12:29:14.574Z,24.07
2018-12-03T12:31:42.017Z,21.77
2018-12-03T12:34:09.791Z,16.93
2018-12-03T12:36:37.237Z,19.73
2018-12-03T12:39:07.128Z,20.30
2018-12-03T12:41:34.681Z,20.03
2018-12-03T12:44:02.205Z,18.13
2018-12-03T12:46:30.202Z,22.13
2018-12-03T12:48:57.679Z,25.23
2018-12-03T12:51:25.117Z,21.20
2018-12-03T12:53:52.603Z,18.27
2018-12-03T12:56:20.144Z,18.37
2018-12-03T12:58:47.545Z,19.17
2018-12-03T13:01:14.975Z,24.13
2018-12-03T13:03:42.365Z,22.60
2018-12-03T13:06:09.848Z,15.07
2018-12-03T13:08:37.574Z,22.90
2018-12-03T13:11:05.115Z,21.90
2018-12-03T13:13:32.671Z,19.93
2018-12-03T13:16:00.166Z,17.60
2018-12-03T13:18:27.619Z,19.30
2018-12-03T13:20:55.037Z,15.73
2018-12-03T13:23:22.496Z,16.27
2018-12-03T13:25:50.005Z,24.60
2018-12-03T13:28:17.520Z,21.07
2018-12-03T13:30:45.015Z,21.23
2018-12-03T13:33:12.483Z,19.20
2018-12-03T13:35:40.013Z,22.07
2018-12-03T13:38:07.465Z,21.13
2018-12-03T13:40:34.992Z,23.60
2018-12-03T13:43:02.461Z,27.03
2018-12-03T13:45:30.783Z,29.87
2018-12-03T13:47:59.367Z,25.47
2018-12-03T13:50:26.853Z,29.53
2018-12-03T13:52:54.254Z,30.20
2018-12-03T13:55:21.821Z,28.33
2018-12-03T13:57:49.258Z,31.00
2018-12-03T14:00:17.414Z,27.30
2018-12-03T14:02:46.096Z,30.53
2018-12-03T14:05:14.168Z,25.90
2018-12-03T14:07:46.321Z,26.70
2018-12-03T14:10:32.116Z,34.33
2018-12-03T14:13:03.786Z,26.73
2018-12-03T14:15:40.277Z,22.87
2018-12-03T14:18:10.989Z,28.23
2018-12-03T14:20:40.217Z,28.60
2018-12-03T14:23:11.841Z,30.27
2018-12-03T14:25:39.312Z,29.80
2018-12-03T14:28:06.842Z,32.83
2018-12-03T14:30:34.321Z,30.23
2018-12-03T14:33:01.771Z,35.63
2018-12-03T14:35:29.198Z,31.20
2018-12-03T14:37:56.705Z,30.23
2018-12-03T14:40:24.190Z,31.97
2018-12-03T14:42:51.609Z,35.90
2018-12-03T14:45:19.070Z,40.10
2018-12-03T14:47:46.567Z,33.80
2018-12-03T14:50:15.007Z,41.43
2018-12-03T14:52:42.497Z,32.10
2018-12-03T14:55:09.942Z,37.37
2018-12-03T14:57:37.930Z,40.73
2018-12-03T15:00:08.551Z,29.17
2018-12-03T15:02:35.983Z,37.07
2018-12-03T15:05:03.655Z,42.90
2018-12-03T15:07:31.047Z,41.53
2018-12-03T15:09:58.455Z,37.73
2018-12-03T15:12:25.862Z,55.97
2018-12-03T15:14:53.299Z,37.93
2018-12-03T15:17:20.790Z,41.30
2018-12-03T15:19:48.283Z,53.20
2018-12-03T15:22:15.704Z,51.37
2018-12-03T15:24:43.093Z,46.63
2018-12-03T15:27:10.627Z,41.57
2018-12-03T15:29:38.146Z,49.00
2018-12-03T15:32:05.606Z,50.50
2018-12-03T15:34:33.034Z,46.93
2018-12-03T15:37:00.458Z,37.23
2018-12-03T15:39:27.989Z,47.03
2018-12-03T15:41:55.862Z,49.00
2018-12-03T15:44:23.469Z,41.83
2018-12-03T15:46:50.888Z,45.97
2018-12-03T15:49:18.381Z,43.00
2018-12-03T15:51:45.812Z,45.47
2018-12-03T15:54:13.850Z,39.07
2018-12-03T15:56:41.278Z,34.67
2018-12-03T15:59:08.893Z,52.30
2018-12-03T16:01:36.307Z,50.50
2018-12-03T16:04:04.537Z,42.47
2018-12-03T16:06:31.956Z,50.63
2018-12-03T16:08:59.437Z,46.97
2018-12-03T16:11:26.888Z,46.83
2018-12-03T16:13:54.294Z,48.17
2018-12-03T16:16:22.413Z,44.57
2018-12-03T16:18:49.968Z,50.20
2018-12-03T16:21:18.452Z,57.13
2018-12-03T16:23:46.223Z,56.30
2018-12-03T16:26:14.467Z,38.67
2018-12-03T16:28:41.972Z,43.00
2018-12-03T16:31:14.068Z,53.27
2018-12-03T16:33:41.533Z,47.23
2018-12-03T16:36:08.986Z,45.27
2018-12-03T16:38:40.612Z,51.57
2018-12-03T16:41:08.890Z,44.23
2018-12-03T16:43:37.534Z,42.30
2018-12-03T16:46:05.131Z,46.90
2018-12-03T16:48:34.326Z,48.10
2018-12-03T16:51:01.850Z,46.57
2018-12-03T16:53:29.270Z,47.83
2018-12-03T16:55:56.763Z,45.23
2018-12-03T16:58:24.936Z,47.50
2018-12-03T17:00:52.621Z,46.47
2018-12-03T17:03:20.196Z,35.40
2018-12-03T17:05:48.238Z,44.20
2018-12-03T17:08:15.702Z,45.17
2018-12-03T17:10:43.329Z,29.43
2018-12-03T17:13:10.762Z,34.13
2018-12-03T17:15:38.247Z,28.13
2018-12-03T17:18:05.761Z,38.03
2018-12-03T17:20:38.752Z,33.90
2018-12-03T17:24:11.683Z,36.37
2018-12-03T17:26:39.562Z,35.30
2018-12-03T17:29:07.409Z,37.00
2018-12-03T17:31:35.672Z,32.07
2018-12-03T17:34:03.265Z,28.50
2018-12-03T17:36:32.032Z,32.20
2018-12-03T17:38:59.591Z,27.73
2018-12-03T17:41:28.072Z,30.47
2018-12-03T17:43:56.939Z,19.23
2018-12-03T17:46:24.452Z,26.83
2018-12-03T17:48:51.916Z,27.13
2018-12-03T17:51:20.028Z,25.50
2018-12-03T17:53:47.461Z,30.53
2018-12-03T17:56:14.924Z,23.60
2018-12-03T17:58:42.481Z,17.93
2018-12-03T18:01:10.020Z,21.00
2018-12-03T18:03:37.502Z,22.53
2018-12-03T18:06:05.288Z,18.07
2018-12-03T18:08:32.914Z,19.83
2018-12-03T18:11:00.997Z,18.90
2018-12-03T18:13:28.886Z,20.03
2018-12-03T18:15:56.441Z,20.53
2018-12-03T18:18:26.837Z,20.13
2018-12-03T18:20:54.356Z,18.73
2018-12-03T18:23:22.604Z,15.97
2018-12-03T18:25:50.253Z,16.03
2018-12-03T18:28:17.749Z,19.80
2018-12-03T18:30:45.205Z,13.53
2018-12-03T18:33:12.632Z,14.77
2018-12-03T18:35:40.031Z,12.70
2018-12-03T18:38:07.475Z,10.97
2018-12-03T18:40:35.065Z,14.30
2018-12-03T18:43:02.604Z,14.07
2018-12-03T18:45:30.068Z,11.80
2018-12-03T18:47:57.630Z,13.77
2018-12-03T18:50:28.077Z,19.10
2018-12-03T18:52:55.597Z,17.37
2018-12-03T18:55:24.938Z,21.37
2018-12-03T18:58:00.823Z,19.50
2018-12-03T19:00:28.893Z,14.70
2018-12-03T19:02:56.960Z,18.17
2018-12-03T19:05:24.765Z,19.27
2018-12-03T19:07:54.312Z,20.47
2018-12-03T19:10:21.941Z,13.93
2018-12-03T19:12:49.491Z,11.80
2018-12-03T19:15:17.197Z,15.30
2018-12-03T19:17:44.757Z,16.67
2018-12-03T19:20:12.180Z,13.50
2018-12-03T19:22:39.820Z,13.63
2018-12-03T19:25:08.015Z,13.37
2018-12-03T19:27:35.535Z,15.70
2018-12-03T19:30:03.025Z,7.77
2018-12-03T19:32:30.824Z,10.80
2018-12-03T19:34:58.485Z,8.07
2018-12-03T19:37:25.907Z,9.43
2018-12-03T19:39:53.317Z,8.00
2018-12-03T19:42:20.804Z,6.83
2018-12-03T19:44:48.246Z,7.10
2018-12-03T19:47:15.734Z,7.57
2018-12-03T19:49:43.666Z,8.53
2018-12-03T19:52:11.989Z,7.33
2018-12-03T19:54:39.876Z,5.63
2018-12-03T19:57:07.970Z,8.60
2018-12-03T19:59:37.992Z,9.97
2018-12-03T20:02:05.567Z,5.97
2018-12-03T20:04:39.432Z,6.60
2018-12-03T20:07:07.890Z,9.37
2018-12-03T20:09:36.047Z,7.47
2018-12-03T20:12:07.902Z,10.37
2018-12-03T20:14:35.506Z,10.10
2018-12-03T20:17:03.040Z,7.00
2018-12-03T20:19:30.649Z,6.10
2018-12-03T20:21:58.382Z,6.60
2018-12-03T20:24:26.727Z,10.87
2018-12-03T20:27:04.706Z,6.53
2018-12-03T20:29:35.760Z,4.93
2018-12-03T20:32:09.092Z,8.23
2018-12-03T20:34:40.456Z,8.10
2018-12-03T20:37:31.405Z,7.13
2018-12-03T20:40:02.741Z,10.77
2018-12-03T20:42:33.493Z,5.87
2018-12-03T20:45:06.665Z,7.43
2018-12-03T20:47:36.503Z,8.43
2018-12-03T20:50:25.646Z,9.70
2018-12-03T20:52:53.423Z,5.77
2018-12-03T20:55:23.058Z,5.43
2018-12-03T20:57:50.596Z,3.50
2018-12-03T21:00:19.220Z,5.00
2018-12-03T21:02:47.020Z,3.57
2018-12-03T21:05:14.809Z,4.27
2018-12-03T21:07:43.059Z,3.10
2018-12-03T21:10:11.734Z,6.70
2018-12-03T21:12:39.264Z,10.47
2018-12-03T21:15:07.335Z,11.10
2018-12-03T21:17:40.631Z,8.30
2018-12-03T21:20:11.952Z,8.73
2018-12-03T21:22:39.593Z,6.90
2018-12-03T21:25:07.171Z,6.53
2018-12-03T21:27:34.668Z,6.17
2018-12-03T21:30:04.378Z,6.07
2018-12-03T21:32:33.012Z,8.40
2018-12-03T21:35:00.561Z,9.80
2018-12-03T21:37:32.845Z,6.57
2018-12-03T21:40:00.846Z,4.80
2018-12-03T21:42:28.426Z,5.90
2018-12-03T21:44:57.357Z,7.80
2018-12-03T21:47:25.002Z,5.73
2018-12-03T21:49:52.705Z,6.83
2018-12-03T21:52:20.887Z,6.00
2018-12-03T21:54:49.256Z,7.23
2018-12-03T21:57:16.840Z,5.33
2018-12-03T21:59:46.265Z,8.33
2018-12-03T22:02:14.099Z,5.37
2018-12-03T22:04:41.553Z,2.57
2018-12-03T22:07:09.350Z,6.90
2018-12-03T22:09:37.450Z,5.00
2018-12-03T22:12:04.894Z,5.40
2018-12-03T22:14:33.682Z,4.87
2018-12-03T22:17:01.256Z,4.23
2018-12-03T22:19:28.781Z,4.50
2018-12-03T22:21:56.186Z,5.30
2018-12-03T22:24:23.723Z,7.13
2018-12-03T22:26:51.185Z,6.10
2018-12-03T22:29:18.643Z,5.90
2018-12-03T22:31:46.088Z,7.87
2018-12-03T22:34:13.664Z,9.03
2018-12-03T22:36:41.159Z,7.17
2018-12-03T22:39:08.668Z,6.73
2018-12-03T22:41:36.088Z,6.93
2018-12-03T22:44:03.639Z,6.17
2018-12-03T22:46:31.056Z,5.47
2018-12-03T22:48:58.501Z,9.33
2018-12-03T22:51:26.038Z,5.97
2018-12-03T22:53:53.663Z,7.37
2018-12-03T22:56:21.101Z,8.10
2018-12-03T22:58:48.766Z,6.33
2018-12-03T23:01:21.325Z,10.53
2018-12-03T23:03:48.811Z,5.50
2018-12-03T23:06:16.308Z,9.40
2018-12-03T23:08:43.871Z,5.97
2018-12-03T23:11:11.491Z,10.70
2018-12-03T23:13:39.044Z,5.07
2018-12-03T23:16:06.544Z,5.90
2018-12-03T23:18:33.966Z,9.50
2018-12-03T23:21:01.570Z,7.50
2018-12-03T23:23:29.038Z,7.67
2018-12-03T23:25:56.452Z,10.87
2018-12-03T23:28:24.339Z,11.13
2018-12-03T23:30:51.863Z,8.77
2018-12-03T23:33:19.325Z,8.77
2018-12-03T23:35:46.831Z,7.83
2018-12-03T23:38:14.959Z,10.03
2018-12-03T23:40:42.405Z,8.47
2018-12-03T23:43:09.890Z,8.67
2018-12-03T23:45:37.329Z,12.00
2018-12-03T23:48:04.827Z,11.60
2018-12-03T23:50:32.231Z,8.53
2018-12-03T23:52:59.732Z,9.47
2018-12-03T23:55:27.246Z,11.93
2018-12-03T23:57:54.731Z,8.13
